Coral Princess — ZCDF4 — position and weather

sailwx.info

Track history (hours):
 
Tides and Currents Weather Stations Pressure Air Temp Water Temp Dewpoint Dewpoint Depression Visibility Wind Speed Wind Dir Waves Ship Positions

Coral Princess

Operator: Princess Cruises

Last reported at 2017-Nov-16 00:00 UTC. Time now 2017-Nov-18 10:36 UTC.
Position N 10°06' W 076°42'.

Type: Passenger vessel. MMSI: 310376000.

Wind from 230 at 33 knots

Barometer 1009.2 mb
Air temperature 28.0 ° C
Visibility: greater than 10.8 NM
Dewpoint 23.7 ° C
Water temperature 29.0 ° C

Date/timePositionNaut miles runAvg speedWind from/ knotsBaromVisibWave heightAir tempDewpointWater temp
2017-Nov-16 00:00N 10°06' W 076°42'4619.6 230 / 331009.210.8 28.023.729.0
2017-Nov-15 21:38N 10°17' W 075°56'320.3
2017-Nov-15 21:30N 10°17' W 075°54'1019.6
2017-Nov-15 21:00N 10°18' W 075°44'917.0
2017-Nov-15 20:30N 10°19' W 075°35'5 9.9
2017-Nov-15 20:00N 10°23' W 075°32'1 2.1
2017-Nov-15 19:30N 10°24' W 075°32'0 0.0
2017-Nov-15 19:00N 10°24' W 075°32'0 0.0
2017-Nov-15 18:30N 10°24' W 075°32'0 0.0
2017-Nov-15 18:00N 10°24' W 075°32'0 0.0
2017-Nov-15 17:30N 10°24' W 075°32'0 0.0
2017-Nov-15 17:00N 10°24' W 075°32'0 0.0
2017-Nov-15 16:30N 10°24' W 075°32'0 0.0
2017-Nov-15 16:00N 10°24' W 075°32'0 0.0
2017-Nov-15 15:30N 10°24' W 075°32'0 0.0
2017-Nov-15 15:00N 10°24' W 075°32'0 0.0
2017-Nov-15 14:30N 10°24' W 075°32'0 0.0
2017-Nov-15 14:00N 10°24' W 075°32'0 0.6
2017-Nov-15 13:30N 10°24' W 075°32'4 7.5
2017-Nov-15 13:00N 10°20' W 075°32'610.9
2017-Nov-15 12:30N 10°19' W 075°38'511.1
2017-Nov-15 12:00N 10°22' W 075°42'1019.2
2017-Nov-15 11:30N 10°31' W 075°39'1018.8
2017-Nov-15 11:00N 10°40' W 075°36'345 8.4
2017-Nov-13 18:00N 15°30' W 072°24'71717.5 090 / 321007.710.8 28.525.029.0
2017-Nov-12 01:07N 25°20' W 079°38'218.7
2017-Nov-12 01:00N 25°22' W 079°39'918.5
2017-Nov-12 00:30N 25°31' W 079°41'917.9
2017-Nov-12 00:00N 25°40' W 079°44'4270.3
2017-Nov-12 00:00N 25°36' W 079°42'1325.9 060 / 441019.010.8 25.117.529.0
2017-Nov-11 23:30N 25°47' W 079°49'714.7
2017-Nov-11 23:00N 25°52' W 079°54'713.8
2017-Nov-11 22:30N 25°58' W 079°59'815.1
2017-Nov-11 22:00N 26°04' W 080°04'3 6.5
2017-Nov-11 21:30N 26°06' W 080°07'0 0.2
2017-Nov-11 20:55N 26°06' W 080°07'0 0.0
2017-Nov-11 20:28N 26°06' W 080°07'0 0.0
2017-Nov-11 19:58N 26°06' W 080°07'0 0.0
2017-Nov-11 19:28N 26°06' W 080°07'0 0.0
2017-Nov-11 18:52N 26°06' W 080°07'0 0.0
2017-Nov-11 18:28N 26°06' W 080°07'0 0.0
2017-Nov-11 17:58N 26°06' W 080°07'0 0.0
2017-Nov-11 17:16N 26°06' W 080°07'0 0.0
2017-Nov-11 16:58N 26°06' W 080°07'0 0.0
2017-Nov-11 16:16N 26°06' W 080°07'0 0.0
2017-Nov-11 15:55N 26°06' W 080°07'0 0.0
2017-Nov-11 15:28N 26°06' W 080°07'0 0.0
2017-Nov-11 14:52N 26°06' W 080°07'0 0.0
2017-Nov-11 14:28N 26°06' W 080°07'0 0.0
2017-Nov-11 13:49N 26°06' W 080°07'0 0.0
2017-Nov-11 13:28N 26°06' W 080°07'0 0.0
2017-Nov-11 12:49N 26°06' W 080°07'0 0.0
2017-Nov-11 12:22N 26°06' W 080°07'0 0.0
2017-Nov-11 11:52N 26°06' W 080°07'0 0.2
2017-Nov-11 11:30N 26°06' W 080°07'2 4.7
2017-Nov-11 11:00N 26°06' W 080°05'5 9.4
2017-Nov-11 10:30N 26°04' W 079°60'612.0
2017-Nov-11 10:00N 25°59' W 079°56'816.6
2017-Nov-11 09:30N 25°51' W 079°54'816.5
2017-Nov-11 09:00N 25°43' W 079°51'815.3
2017-Nov-11 08:30N 25°36' W 079°49'815.1
2017-Nov-11 08:00N 25°28' W 079°46'815.2
2017-Nov-11 07:30N 25°21' W 079°44'815.0
2017-Nov-11 07:00N 25°14' W 079°42'3115.3
2017-Nov-11 04:57N 24°44' W 079°32'817.2
2017-Nov-11 04:29N 24°36' W 079°30'816.7
2017-Nov-11 04:00N 24°28' W 079°27'916.7
2017-Nov-11 03:29N 24°20' W 079°24'916.8
2017-Nov-11 02:59N 24°12' W 079°22'917.6
2017-Nov-11 02:28N 24°03' W 079°19'1317.7
2017-Nov-11 01:43N 23°50' W 079°15'417.5
2017-Nov-11 01:28N 23°46' W 079°14'19618.7
2017-Nov-10 15:00N 21°42' W 076°30'6616.6 040 / 151015.410.8 27.524.728.0
2017-Nov-10 11:00N 21°06' W 075°30'   090 / 81013.6 1.1 25.217.628.0
2017-Nov-07 21:29N 10°48' W 075°31'1020.5
2017-Nov-07 21:00N 10°39' W 075°34'1019.9
2017-Nov-07 20:30N 10°30' W 075°37'918.1
2017-Nov-07 20:00N 10°20' W 075°37'5 9.9
2017-Nov-07 19:30N 10°21' W 075°32'3 6.4
2017-Nov-07 18:58N 10°24' W 075°32'0 0.0
2017-Nov-07 18:28N 10°24' W 075°32'0 0.0
2017-Nov-07 17:58N 10°24' W 075°32'0 0.0
2017-Nov-07 17:28N 10°24' W 075°32'0 0.0
2017-Nov-07 16:58N 10°24' W 075°32'0 0.0
2017-Nov-07 16:28N 10°24' W 075°32'0 0.0
2017-Nov-07 15:58N 10°24' W 075°32'0 0.0
2017-Nov-07 15:22N 10°24' W 075°32'0 0.0
2017-Nov-07 14:58N 10°24' W 075°32'0 0.0
2017-Nov-07 14:28N 10°24' W 075°32'0 0.0
2017-Nov-07 13:55N 10°24' W 075°32'0 0.0
2017-Nov-07 13:28N 10°24' W 075°32'0 0.0
2017-Nov-07 12:58N 10°24' W 075°32'0 0.5
2017-Nov-07 12:30N 10°24' W 075°32'3 6.2
2017-Nov-07 12:00N 10°21' W 075°32'611.8
2017-Nov-07 11:30N 10°19' W 075°37'612.3
2017-Nov-07 11:00N 10°18' W 075°44'  
Track history (hours):
 
Tides and Currents Weather Stations Pressure Air Temp Water Temp Dewpoint Dewpoint Depression Visibility Wind Speed Wind Dir Waves Ship Positions

Coral Princess

Operator: Princess Cruises

Last reported at 2017-Nov-16 00:00 UTC. Time now 2017-Nov-18 10:36 UTC.
Position N 10°06' W 076°42'.

Type: Passenger vessel. MMSI: 310376000.

Wind from 230 at 33 knots

Barometer 1009.2 mb
Air temperature 28.0 ° C
Visibility: greater than 10.8 NM
Dewpoint 23.7 ° C
Water temperature 29.0 ° C

Date/timePositionNaut miles runAvg speedWind from/ knotsBaromVisibWave heightAir tempDewpointWater temp
2017-Nov-16 00:00N 10°06' W 076°42'4619.6 230 / 331009.210.8 28.023.729.0
2017-Nov-15 21:38N 10°17' W 075°56'320.3
2017-Nov-15 21:30N 10°17' W 075°54'1019.6
2017-Nov-15 21:00N 10°18' W 075°44'917.0
2017-Nov-15 20:30N 10°19' W 075°35'5 9.9
2017-Nov-15 20:00N 10°23' W 075°32'1 2.1
2017-Nov-15 19:30N 10°24' W 075°32'0 0.0
2017-Nov-15 19:00N 10°24' W 075°32'0 0.0
2017-Nov-15 18:30N 10°24' W 075°32'0 0.0
2017-Nov-15 18:00N 10°24' W 075°32'0 0.0
2017-Nov-15 17:30N 10°24' W 075°32'0 0.0
2017-Nov-15 17:00N 10°24' W 075°32'0 0.0
2017-Nov-15 16:30N 10°24' W 075°32'0 0.0
2017-Nov-15 16:00N 10°24' W 075°32'0 0.0
2017-Nov-15 15:30N 10°24' W 075°32'0 0.0
2017-Nov-15 15:00N 10°24' W 075°32'0 0.0
2017-Nov-15 14:30N 10°24' W 075°32'0 0.0
2017-Nov-15 14:00N 10°24' W 075°32'0 0.6
2017-Nov-15 13:30N 10°24' W 075°32'4 7.5
2017-Nov-15 13:00N 10°20' W 075°32'610.9
2017-Nov-15 12:30N 10°19' W 075°38'511.1
2017-Nov-15 12:00N 10°22' W 075°42'1019.2
2017-Nov-15 11:30N 10°31' W 075°39'1018.8
2017-Nov-15 11:00N 10°40' W 075°36'345 8.4
2017-Nov-13 18:00N 15°30' W 072°24'71717.5 090 / 321007.710.8 28.525.029.0
2017-Nov-12 01:07N 25°20' W 079°38'218.7
2017-Nov-12 01:00N 25°22' W 079°39'918.5
2017-Nov-12 00:30N 25°31' W 079°41'917.9
2017-Nov-12 00:00N 25°40' W 079°44'4270.3
2017-Nov-12 00:00N 25°36' W 079°42'1325.9 060 / 441019.010.8 25.117.529.0
2017-Nov-11 23:30N 25°47' W 079°49'714.7
2017-Nov-11 23:00N 25°52' W 079°54'713.8
2017-Nov-11 22:30N 25°58' W 079°59'815.1
2017-Nov-11 22:00N 26°04' W 080°04'3 6.5
2017-Nov-11 21:30N 26°06' W 080°07'0 0.2
2017-Nov-11 20:55N 26°06' W 080°07'0 0.0
2017-Nov-11 20:28N 26°06' W 080°07'0 0.0
2017-Nov-11 19:58N 26°06' W 080°07'0 0.0
2017-Nov-11 19:28N 26°06' W 080°07'0 0.0
2017-Nov-11 18:52N 26°06' W 080°07'0 0.0
2017-Nov-11 18:28N 26°06' W 080°07'0 0.0
2017-Nov-11 17:58N 26°06' W 080°07'0 0.0
2017-Nov-11 17:16N 26°06' W 080°07'0 0.0
2017-Nov-11 16:58N 26°06' W 080°07'0 0.0
2017-Nov-11 16:16N 26°06' W 080°07'0 0.0
2017-Nov-11 15:55N 26°06' W 080°07'0 0.0
2017-Nov-11 15:28N 26°06' W 080°07'0 0.0
2017-Nov-11 14:52N 26°06' W 080°07'0 0.0
2017-Nov-11 14:28N 26°06' W 080°07'0 0.0
2017-Nov-11 13:49N 26°06' W 080°07'0 0.0
2017-Nov-11 13:28N 26°06' W 080°07'0 0.0
2017-Nov-11 12:49N 26°06' W 080°07'0 0.0
2017-Nov-11 12:22N 26°06' W 080°07'0 0.0
2017-Nov-11 11:52N 26°06' W 080°07'0 0.2
2017-Nov-11 11:30N 26°06' W 080°07'2 4.7
2017-Nov-11 11:00N 26°06' W 080°05'5 9.4
2017-Nov-11 10:30N 26°04' W 079°60'612.0
2017-Nov-11 10:00N 25°59' W 079°56'816.6
2017-Nov-11 09:30N 25°51' W 079°54'816.5
2017-Nov-11 09:00N 25°43' W 079°51'815.3
2017-Nov-11 08:30N 25°36' W 079°49'815.1
2017-Nov-11 08:00N 25°28' W 079°46'815.2
2017-Nov-11 07:30N 25°21' W 079°44'815.0
2017-Nov-11 07:00N 25°14' W 079°42'3115.3
2017-Nov-11 04:57N 24°44' W 079°32'817.2
2017-Nov-11 04:29N 24°36' W 079°30'816.7
2017-Nov-11 04:00N 24°28' W 079°27'916.7
2017-Nov-11 03:29N 24°20' W 079°24'916.8
2017-Nov-11 02:59N 24°12' W 079°22'917.6
2017-Nov-11 02:28N 24°03' W 079°19'1317.7
2017-Nov-11 01:43N 23°50' W 079°15'417.5
2017-Nov-11 01:28N 23°46' W 079°14'19618.7
2017-Nov-10 15:00N 21°42' W 076°30'6616.6 040 / 151015.410.8 27.524.728.0
2017-Nov-10 11:00N 21°06' W 075°30'   090 / 81013.6 1.1 25.217.628.0
2017-Nov-07 21:29N 10°48' W 075°31'1020.5
2017-Nov-07 21:00N 10°39' W 075°34'1019.9
2017-Nov-07 20:30N 10°30' W 075°37'918.1
2017-Nov-07 20:00N 10°20' W 075°37'5 9.9
2017-Nov-07 19:30N 10°21' W 075°32'3 6.4
2017-Nov-07 18:58N 10°24' W 075°32'0 0.0
2017-Nov-07 18:28N 10°24' W 075°32'0 0.0
2017-Nov-07 17:58N 10°24' W 075°32'0 0.0
2017-Nov-07 17:28N 10°24' W 075°32'0 0.0
2017-Nov-07 16:58N 10°24' W 075°32'0 0.0
2017-Nov-07 16:28N 10°24' W 075°32'0 0.0
2017-Nov-07 15:58N 10°24' W 075°32'0 0.0
2017-Nov-07 15:22N 10°24' W 075°32'0 0.0
2017-Nov-07 14:58N 10°24' W 075°32'0 0.0
2017-Nov-07 14:28N 10°24' W 075°32'0 0.0
2017-Nov-07 13:55N 10°24' W 075°32'0 0.0
2017-Nov-07 13:28N 10°24' W 075°32'0 0.0
2017-Nov-07 12:58N 10°24' W 075°32'0 0.5
2017-Nov-07 12:30N 10°24' W 075°32'3 6.2
2017-Nov-07 12:00N 10°21' W 075°32'611.8
2017-Nov-07 11:30N 10°19' W 075°37'612.3
2017-Nov-07 11:00N 10°18' W 075°44'  

Dump ship's entire track history